Time;durP1;ratioP1;P1;durP2;ratioP2;P2;SDS_P1;SDS_P2;PMS_P1;PMS_P2;Temp;Humidity;BMP_temperature;BMP_pressure;BME280_temperature;BME280_humidity;BME280_pressure;Samples;Min_cycle;Max_cycle;Signal;HPM_P1;HPM_P2
2023/06/12 00:02:09;;;;;;;6.07;2.80;;;;;;;17.04;90.92;100849.53;5186073;28;20066;-73
2023/06/12 00:04:44;;;;;;;5.93;2.38;;;;;;;17.19;89.84;100861.88;5188799;28;20037;-75
2023/06/12 00:07:16;;;;;;;4.30;2.40;;;;;;;17.22;87.47;100860.81;5188313;28;20025;-75
2023/06/12 00:09:46;;;;;;;4.63;2.72;;;;;;;17.01;89.56;100856.78;5190146;28;20038;-75
2023/06/12 00:12:17;;;;;;;4.18;2.53;;;;;;;17.06;89.73;100857.34;5191905;28;20025;-75
2023/06/12 00:14:47;;;;;;;6.75;2.85;;;;;;;17.22;88.30;100855.53;5193471;28;20040;-75
2023/06/12 00:17:17;;;;;;;6.95;3.10;;;;;;;17.03;87.75;100860.19;5179676;28;20280;-75
2023/06/12 00:19:47;;;;;;;6.55;3.25;;;;;;;16.98;88.19;100862.25;5191330;28;20061;-71
2023/06/12 00:22:18;;;;;;;5.85;2.78;;;;;;;17.11;88.05;100857.97;5190491;28;20029;-76
2023/06/12 00:24:48;;;;;;;7.28;3.28;;;;;;;17.07;89.41;100854.66;5189559;28;20395;-73
2023/06/12 00:27:18;;;;;;;5.47;3.20;;;;;;;17.15;88.57;100859.50;5184894;28;20029;-76
2023/06/12 00:29:49;;;;;;;5.82;3.10;;;;;;;17.24;86.63;100861.59;5187371;28;20275;-74
2023/06/12 00:32:19;;;;;;;5.13;3.25;;;;;;;17.20;88.07;100860.94;5188312;28;20626;-74
2023/06/12 00:34:49;;;;;;;5.68;2.95;;;;;;;17.17;87.69;100860.25;5192344;28;20036;-74
2023/06/12 00:37:19;;;;;;;5.20;2.88;;;;;;;16.96;89.49;100864.13;5186182;28;20022;-74
2023/06/12 00:39:51;;;;;;;4.50;2.50;;;;;;;17.02;90.41;100866.41;5183856;28;20398;-73
2023/06/12 00:42:21;;;;;;;5.15;2.60;;;;;;;16.84;91.18;100860.38;5190832;28;20303;-76
2023/06/12 00:44:52;;;;;;;4.40;2.38;;;;;;;16.40;93.31;100865.59;5188588;28;20025;-75
2023/06/12 00:47:22;;;;;;;7.82;2.55;;;;;;;16.29;94.82;100866.13;5169747;28;20040;-75
2023/06/12 00:49:52;;;;;;;5.70;3.25;;;;;;;16.27;94.55;100869.78;5183216;28;20370;-75
2023/06/12 00:52:26;;;;;;;6.72;2.42;;;;;;;16.18;95.46;100868.50;5186385;28;20127;-74
2023/06/12 00:54:56;;;;;;;4.45;2.50;;;;;;;16.15;95.11;100858.09;5181635;28;20084;-76
2023/06/12 00:57:27;;;;;;;6.40;2.70;;;;;;;16.11;96.20;100867.13;5189361;28;20116;-76
2023/06/12 00:59:57;;;;;;;6.50;2.80;;;;;;;16.22;95.06;100864.75;5186945;28;20021;-71
2023/06/12 01:02:28;;;;;;;6.75;2.80;;;;;;;16.36;94.66;100856.97;5187740;28;20113;-75
2023/06/12 01:04:59;;;;;;;6.50;2.95;;;;;;;16.49;92.88;100858.00;5192792;28;20816;-74
2023/06/12 01:07:54;;;;;;;6.28;3.55;;;;;;;16.42;93.74;100861.06;5190075;28;20599;-75
2023/06/12 01:10:31;;;;;;;10.85;3.83;;;;;;;16.42;91.96;100861.91;5191180;28;20029;-76
2023/06/12 01:13:03;;;;;;;7.60;3.78;;;;;;;16.43;92.54;100863.63;5190375;28;20025;-74
2023/06/12 01:15:33;;;;;;;6.43;4.10;;;;;;;16.43;92.35;100861.00;5191895;28;20994;-75
2023/06/12 01:18:06;;;;;;;11.02;4.55;;;;;;;16.48;91.75;100861.59;5191432;28;20120;-74
2023/06/12 01:20:37;;;;;;;9.60;4.95;;;;;;;16.39;92.05;100872.63;5190732;28;20383;-75
2023/06/12 01:23:26;;;;;;;11.45;5.25;;;;;;;16.27;92.75;100868.00;5188054;28;20091;-74
2023/06/12 01:26:36;;;;;;;8.60;5.05;;;;;;;16.36;91.37;100866.69;5182610;28;20033;-74
2023/06/12 01:29:31;;;;;;;10.80;5.93;;;;;;;16.31;92.11;100869.53;5179308;28;20037;-75
2023/06/12 01:32:03;;;;;;;9.30;6.13;;;;;;;16.31;93.05;100872.19;5185755;28;20050;-75
2023/06/12 01:34:53;;;;;;;9.60;5.75;;;;;;;16.35;92.82;100876.38;5191068;28;20153;-75
2023/06/12 01:37:37;;;;;;;7.88;5.30;;;;;;;16.38;92.73;100865.66;5190177;28;20026;-73
2023/06/12 01:40:08;;;;;;;10.82;5.70;;;;;;;16.38;92.25;100868.28;5187832;28;20677;-73
2023/06/12 01:42:40;;;;;;;7.75;5.22;;;;;;;16.39;91.84;100872.63;5188053;28;20061;-75
2023/06/12 01:45:10;;;;;;;8.38;5.30;;;;;;;16.47;91.69;100873.09;5183318;28;20559;-75
2023/06/12 01:47:40;;;;;;;6.60;4.90;;;;;;;16.56;91.31;100864.63;5186941;28;20116;-75
2023/06/12 01:50:13;;;;;;;8.73;5.65;;;;;;;16.48;91.15;100866.88;5186692;28;20116;-75
2023/06/12 01:52:43;;;;;;;7.40;5.20;;;;;;;16.35;92.48;100876.38;5186958;28;20040;-75
2023/06/12 01:55:14;;;;;;;8.65;5.38;;;;;;;16.37;91.72;100874.50;5185084;28;20033;-75
2023/06/12 01:57:44;;;;;;;10.23;5.28;;;;;;;16.31;93.02;100872.19;5191089;28;20087;-75
2023/06/12 02:00:16;;;;;;;10.20;6.10;;;;;;;16.30;91.74;100881.03;5184534;28;20033;-75
2023/06/12 02:02:48;;;;;;;10.07;5.43;;;;;;;16.24;93.86;100877.88;5188164;28;20172;-75
2023/06/12 02:05:18;;;;;;;9.77;5.80;;;;;;;16.22;93.37;100879.72;5190031;28;20391;-73
2023/06/12 02:07:49;;;;;;;8.43;6.07;;;;;;;16.15;93.92;100876.56;5190069;28;20025;-73
2023/06/12 02:10:19;;;;;;;7.45;5.47;;;;;;;16.24;94.06;100872.59;5187836;28;20029;-71
2023/06/12 02:12:50;;;;;;;8.55;5.25;;;;;;;16.32;92.38;100876.50;5184041;28;20501;-74
2023/06/12 02:15:20;;;;;;;7.68;5.38;;;;;;;16.09;93.54;100883.94;5184874;28;20502;-72
2023/06/12 02:17:51;;;;;;;10.65;5.63;;;;;;;16.13;95.35;100893.41;5182089;28;20024;-76
2023/06/12 02:20:21;;;;;;;8.40;5.50;;;;;;;16.03;95.09;100885.13;5178487;28;20095;-73
2023/06/12 02:22:51;;;;;;;11.13;5.72;;;;;;;16.08;96.13;100888.34;5182448;28;20491;-75
2023/06/12 02:25:21;;;;;;;10.52;5.75;;;;;;;16.11;94.11;100867.13;5179451;28;20108;-72
2023/06/12 02:27:52;;;;;;;9.23;5.93;;;;;;;16.02;94.08;100880.78;5180142;28;20025;-75
2023/06/12 02:30:22;;;;;;;8.15;5.18;;;;;;;16.16;93.36;100880.03;5176095;28;20029;-72
2023/06/12 02:32:54;;;;;;;8.13;5.18;;;;;;;16.07;94.82;100889.28;5181548;28;20033;-75
2023/06/12 02:35:25;;;;;;;7.13;5.78;;;;;;;16.05;94.06;100891.16;5180891;28;20026;-74
2023/06/12 02:37:55;;;;;;;9.40;5.72;;;;;;;15.94;94.68;100893.53;5179606;28;20047;-74
2023/06/12 02:40:25;;;;;;;8.85;5.60;;;;;;;15.90;96.90;100902.50;5177425;28;20499;-74
2023/06/12 02:42:55;;;;;;;10.75;5.40;;;;;;;16.05;95.51;100896.44;5177441;28;20033;-75
2023/06/12 02:45:26;;;;;;;10.55;6.32;;;;;;;15.98;94.89;100897.72;5181971;28;20164;-74
2023/06/12 02:47:56;;;;;;;10.68;5.82;;;;;;;15.97;95.19;100901.28;5180854;28;20026;-74
2023/06/12 02:50:26;;;;;;;11.40;5.80;;;;;;;16.00;95.89;100898.47;5183034;28;20121;-75
2023/06/12 02:52:57;;;;;;;8.98;5.78;;;;;;;16.01;94.84;100897.53;5180123;28;20281;-76
2023/06/12 02:55:27;;;;;;;8.45;5.75;;;;;;;16.09;95.08;100900.63;5184433;28;20056;-75
2023/06/12 02:57:57;;;;;;;9.60;5.93;;;;;;;16.38;93.36;100893.84;5178556;28;20392;-74
2023/06/12 03:00:27;;;;;;;7.32;4.80;;;;;;;16.25;94.84;100895.38;5182964;28;20030;-76
2023/06/12 03:02:58;;;;;;;8.27;4.90;;;;;;;16.25;94.57;100898.03;5181274;28;20041;-75
2023/06/12 03:05:28;;;;;;;8.00;5.10;;;;;;;16.35;94.27;100900.13;5209879;23;20025;-70
2023/06/12 03:08:02;;;;;;;10.10;5.50;;;;;;;16.38;94.56;100899.94;5179240;28;20172;-68
2023/06/12 03:10:32;;;;;;;12.05;5.18;;;;;;;16.39;93.74;100900.81;5181197;28;20068;-70
2023/06/12 03:13:03;;;;;;;8.50;5.05;;;;;;;16.42;93.74;100895.38;5181792;28;20464;-70
2023/06/12 03:15:33;;;;;;;8.63;5.15;;;;;;;16.39;93.93;100898.19;5183346;28;20057;-70
2023/06/12 03:18:04;;;;;;;9.35;5.10;;;;;;;16.34;94.47;100897.50;5182091;28;20065;-70
2023/06/12 03:20:34;;;;;;;9.75;4.93;;;;;;;16.47;93.13;100901.25;5182073;28;20471;-70
2023/06/12 03:23:05;;;;;;;8.20;5.00;;;;;;;16.43;93.38;100902.34;5185732;28;20403;-72
2023/06/12 03:25:35;;;;;;;8.90;5.10;;;;;;;16.41;93.14;100905.06;5185552;28;20028;-73
2023/06/12 03:28:06;;;;;;;8.93;4.95;;;;;;;16.41;91.46;100907.69;5185329;28;20030;-72
2023/06/12 03:30:36;;;;;;;7.57;4.85;;;;;;;16.38;93.36;100910.50;5184735;28;20026;-72
2023/06/12 03:33:06;;;;;;;8.73;5.07;;;;;;;16.44;92.64;100912.84;5186302;28;20936;-72
2023/06/12 03:35:37;;;;;;;8.25;5.07;;;;;;;16.45;93.29;100914.53;5186412;28;20434;-72
2023/06/12 03:38:07;;;;;;;11.17;5.27;;;;;;;16.34;94.22;100913.34;5184008;28;20473;-72
2023/06/12 03:40:38;;;;;;;9.13;5.63;;;;;;;16.13;94.66;100918.00;5183938;28;20331;-72
2023/06/12 03:43:08;;;;;;;7.05;5.22;;;;;;;16.37;94.12;100916.72;5182680;28;20030;-72
2023/06/12 03:45:38;;;;;;;8.73;5.18;;;;;;;16.20;95.57;100915.91;5185869;28;20560;-72
2023/06/12 03:48:08;;;;;;;8.80;5.65;;;;;;;16.06;95.54;100921.88;5185552;28;20025;-72
2023/06/12 03:50:39;;;;;;;9.45;5.07;;;;;;;16.02;97.29;100912.44;5185244;28;20052;-72
2023/06/12 03:53:09;;;;;;;8.00;4.77;;;;;;;16.12;97.12;100918.94;5189096;28;20033;-72
2023/06/12 03:55:40;;;;;;;7.03;4.43;;;;;;;16.38;95.32;100918.41;5186531;28;20576;-72
2023/06/12 03:58:16;;;;;;;8.95;5.32;;;;;;;16.39;95.16;100909.56;5186877;28;20072;-72
2023/06/12 04:00:47;;;;;;;;;;;;;;;16.33;96.56;100914.28;5185145;28;20053;-73
2023/06/12 04:03:18;;;;;;;8.27;5.03;;;;;;;16.50;96.50;100912.50;5188441;28;19923;-70
2023/06/12 04:05:48;;;;;;;10.40;5.28;;;;;;;16.52;95.57;100915.88;5184029;28;20418;-71
2023/06/12 04:08:20;;;;;;;7.55;4.88;;;;;;;16.65;95.81;100916.06;5185887;28;20033;-70
2023/06/12 04:10:50;;;;;;;7.53;4.88;;;;;;;16.80;93.85;100918.72;5182894;28;20046;-69
2023/06/12 04:13:21;;;;;;;6.45;4.72;;;;;;;16.91;91.57;100914.56;5186558;28;20029;-70
2023/06/12 04:15:52;;;;;;;7.80;4.78;;;;;;;17.03;91.67;100924.44;5180334;28;20472;-70
2023/06/12 04:18:22;;;;;;;7.35;4.78;;;;;;;17.07;90.69;100927.72;5185404;28;20029;-71
2023/06/12 04:20:54;;;;;;;8.63;5.13;;;;;;;17.16;90.18;100929.88;5185479;28;20030;-71
2023/06/12 04:23:29;;;;;;;6.45;4.57;;;;;;;17.22;91.29;100925.09;5188191;28;20092;-70
2023/06/12 04:26:05;;;;;;;7.80;4.70;;;;;;;17.21;91.02;100928.69;5187673;28;20476;-70
2023/06/12 04:28:36;;;;;;;8.65;5.00;;;;;;;17.39;90.55;100926.78;5186605;28;20026;-69
2023/06/12 04:31:08;;;;;;;7.18;4.50;;;;;;;17.67;88.59;100932.19;5185878;28;20038;-70
2023/06/12 04:33:38;;;;;;;7.90;4.80;;;;;;;17.65;88.59;100939.34;5185121;28;20026;-70
2023/06/12 04:36:17;;;;;;;6.90;4.73;;;;;;;17.87;87.84;100938.00;5186273;28;20032;-68
2023/06/12 04:38:50;;;;;;;6.88;4.20;;;;;;;17.93;87.84;100931.47;5186613;28;20566;-70
2023/06/12 04:41:24;;;;;;;7.72;4.13;;;;;;;18.15;86.88;100942.47;5186147;28;20410;-70
2023/06/12 04:44:03;;;;;;;7.03;4.50;;;;;;;18.66;85.88;100936.66;5184362;28;20088;-70
2023/06/12 04:46:33;;;;;;;8.10;4.18;;;;;;;20.51;78.41;100933.78;5185568;28;20028;-70
2023/06/12 04:49:03;;;;;;;6.78;4.03;;;;;;;21.66;73.71;100926.09;5183909;28;20117;-70
2023/06/12 04:51:35;;;;;;;7.43;3.70;;;;;;;23.11;68.44;100930.47;5186086;28;20053;-69
2023/06/12 04:54:05;;;;;;;5.28;3.53;;;;;;;24.53;63.73;100925.38;5185519;28;20033;-71
2023/06/12 04:56:40;;;;;;;6.80;3.42;;;;;;;25.01;62.47;100924.53;5187487;28;20619;-69
2023/06/12 04:59:10;;;;;;;7.97;3.35;;;;;;;25.18;61.28;100931.94;5185529;28;20111;-71
2023/06/12 05:01:40;;;;;;;6.60;3.90;;;;;;;25.94;58.58;100933.81;5182367;28;20049;-71
2023/06/12 05:04:11;;;;;;;6.50;3.50;;;;;;;25.72;59.13;100932.25;5184550;28;20422;-69
2023/06/12 05:06:42;;;;;;;5.45;3.35;;;;;;;26.94;56.24;100922.19;5187376;28;20312;-71
2023/06/12 05:09:12;;;;;;;4.53;3.23;;;;;;;27.20;55.77;100933.94;5186207;28;20084;-71
2023/06/12 05:11:43;;;;;;;7.43;3.40;;;;;;;27.55;54.74;100936.63;5183450;28;20280;-70
2023/06/12 05:14:13;;;;;;;4.63;3.40;;;;;;;26.68;56.81;100932.94;5185422;28;20845;-70
2023/06/12 05:16:46;;;;;;;4.10;3.03;;;;;;;27.38;54.33;100932.09;5185156;28;20320;-70
2023/06/12 05:19:17;;;;;;;5.55;3.22;;;;;;;27.89;54.46;100931.41;5186787;28;20119;-70
2023/06/12 05:21:49;;;;;;;6.07;3.03;;;;;;;28.33;52.60;100936.63;5185866;28;20087;-71
2023/06/12 05:24:20;;;;;;;6.72;3.10;;;;;;;27.11;54.47;100939.38;5187177;28;20029;-71
2023/06/12 05:26:50;;;;;;;5.57;2.85;;;;;;;27.42;53.11;100944.22;5182104;28;20025;-69
2023/06/12 05:29:21;;;;;;;5.07;2.95;;;;;;;27.66;52.92;100936.41;5186956;28;20515;-71
2023/06/12 05:31:51;;;;;;;5.28;3.00;;;;;;;27.54;53.70;100948.38;5183813;28;20027;-70
2023/06/12 05:34:21;;;;;;;5.13;2.67;;;;;;;28.16;52.38;100939.34;5185905;28;20029;-70
2023/06/12 05:36:52;;;;;;;5.47;2.70;;;;;;;27.10;53.60;100943.88;5188608;28;20316;-70
2023/06/12 05:39:22;;;;;;;6.83;2.53;;;;;;;26.95;54.46;100945.34;5187395;28;20399;-71
2023/06/12 05:41:52;;;;;;;7.57;2.80;;;;;;;26.56;53.08;100943.00;5184365;28;20363;-70
2023/06/12 05:44:22;;;;;;;7.10;2.90;;;;;;;26.29;53.95;100945.59;5185950;28;20283;-70
2023/06/12 05:46:53;;;;;;;4.03;2.57;;;;;;;24.94;55.07;100947.47;5185090;28;20685;-70
2023/06/12 05:49:23;;;;;;;4.82;2.40;;;;;;;24.67;54.66;100943.72;5186765;28;20298;-69
2023/06/12 05:51:53;;;;;;;3.95;2.70;;;;;;;24.82;55.93;100942.38;5185057;28;20080;-70
2023/06/12 05:54:23;;;;;;;5.88;2.80;;;;;;;24.52;56.79;100939.72;5187544;28;20028;-70
2023/06/12 05:56:54;;;;;;;4.32;2.53;;;;;;;24.38;55.96;100945.38;5187430;28;20057;-70
2023/06/12 05:59:25;;;;;;;4.80;2.60;;;;;;;24.20;56.39;100946.97;5184640;28;20025;-69
2023/06/12 06:01:56;;;;;;;7.73;2.57;;;;;;;23.78;56.53;100941.72;5180245;28;20036;-70
2023/06/12 06:04:26;;;;;;;4.28;2.60;;;;;;;24.14;57.04;100934.16;5183774;28;20339;-70
2023/06/12 06:06:57;;;;;;;3.47;2.20;;;;;;;23.99;55.43;100940.81;5185122;28;20032;-69
2023/06/12 06:09:27;;;;;;;4.15;2.30;;;;;;;24.22;55.51;100947.69;5185634;28;20025;-70
2023/06/12 06:11:57;;;;;;;4.43;2.40;;;;;;;24.15;54.43;100941.19;5186162;28;20044;-69
2023/06/12 06:14:29;;;;;;;3.73;2.20;;;;;;;23.91;54.63;100953.94;5189094;28;20611;-69
2023/06/12 06:16:59;;;;;;;6.88;3.00;;;;;;;23.93;54.00;100953.81;5187227;28;20409;-69
2023/06/12 06:19:29;;;;;;;3.60;2.63;;;;;;;24.16;53.30;100953.56;5186308;28;20124;-70
2023/06/12 06:22:00;;;;;;;5.55;2.83;;;;;;;23.85;54.61;100964.31;5184634;28;20277;-70
2023/06/12 06:24:30;;;;;;;5.60;2.65;;;;;;;24.25;54.07;100958.09;5186198;28;20558;-70
2023/06/12 06:27:02;;;;;;;6.70;2.42;;;;;;;24.26;53.89;100959.81;5187620;28;20396;-70
2023/06/12 06:29:32;;;;;;;5.38;2.33;;;;;;;24.58;53.29;100960.56;5187757;28;20268;-70
2023/06/12 06:32:03;;;;;;;3.80;2.57;;;;;;;24.19;53.96;100969.31;5185894;28;20393;-70
2023/06/12 06:34:33;;;;;;;7.22;2.50;;;;;;;24.23;53.96;100975.25;5186499;28;20289;-70
2023/06/12 06:37:03;;;;;;;4.33;2.50;;;;;;;24.69;54.07;100962.31;5187536;28;20484;-69
2023/06/12 06:39:34;;;;;;;12.52;2.80;;;;;;;24.76;53.38;100969.66;5188460;28;20535;-70
2023/06/12 06:42:04;;;;;;;3.47;2.40;;;;;;;25.24;52.06;100968.00;5184356;28;20029;-70
2023/06/12 06:44:34;;;;;;;4.10;2.55;;;;;;;25.01;52.18;100971.88;5187272;28;20483;-69
2023/06/12 06:47:07;;;;;;;4.13;2.20;;;;;;;24.90;52.65;100982.66;5183893;28;20109;-70
2023/06/12 06:49:38;;;;;;;7.30;2.50;;;;;;;24.76;54.12;100975.00;5189103;28;20115;-70
2023/06/12 06:52:08;;;;;;;6.15;2.28;;;;;;;25.04;53.31;100982.28;5188631;28;20510;-69
2023/06/12 06:54:38;;;;;;;9.25;2.58;;;;;;;25.89;51.45;100978.94;5192069;28;20037;-69
2023/06/12 06:57:11;;;;;;;5.20;2.37;;;;;;;25.93;51.52;100980.34;5190274;28;20106;-70
2023/06/12 06:59:41;;;;;;;5.25;2.40;;;;;;;25.84;50.79;100983.84;5192490;28;20284;-70
2023/06/12 07:02:11;;;;;;;6.53;2.33;;;;;;;26.40;49.57;100980.28;5188769;28;20033;-70
2023/06/12 07:04:42;;;;;;;6.03;2.10;;;;;;;26.49;50.33;100982.13;5187846;28;20361;-70
2023/06/12 07:07:13;;;;;;;3.63;1.90;;;;;;;26.54;49.81;100976.31;5189631;28;20273;-70
2023/06/12 07:09:43;;;;;;;3.47;1.80;;;;;;;26.74;49.12;100978.78;5194141;28;20083;-70
2023/06/12 07:12:13;;;;;;;5.40;2.00;;;;;;;26.86;48.92;100980.28;5189672;28;20045;-70
2023/06/12 07:14:44;;;;;;;3.03;1.73;;;;;;;26.77;48.16;100973.97;5195536;28;20749;-71
2023/06/12 07:17:14;;;;;;;3.58;1.92;;;;;;;27.27;48.53;100979.81;5190026;28;20029;-69
2023/06/12 07:19:44;;;;;;;4.00;2.20;;;;;;;27.75;47.79;100983.06;5187664;28;20304;-71
2023/06/12 07:22:15;;;;;;;2.93;1.93;;;;;;;27.74;47.73;100984.03;5186452;28;20280;-70
2023/06/12 07:24:45;;;;;;;5.10;1.70;;;;;;;27.37;48.31;100994.88;5190078;28;20322;-71
2023/06/12 07:27:16;;;;;;;3.35;1.90;;;;;;;28.14;46.77;100995.97;5185473;28;20083;-70
2023/06/12 07:29:46;;;;;;;2.90;1.70;;;;;;;27.46;46.50;100993.94;5192161;28;20032;-70
2023/06/12 07:32:16;;;;;;;5.43;1.70;;;;;;;27.90;47.42;100982.34;5186927;28;20833;-71
2023/06/12 07:34:47;;;;;;;3.43;1.90;;;;;;;28.18;48.11;100980.38;5192282;28;20029;-71
2023/06/12 07:37:20;;;;;;;3.65;1.85;;;;;;;27.67;47.31;100991.84;5187054;28;20670;-70
2023/06/12 07:39:51;;;;;;;6.38;1.85;;;;;;;28.99;45.47;100983.44;5186005;28;20372;-70
2023/06/12 07:42:21;;;;;;;3.70;1.67;;;;;;;29.45;45.32;100985.63;5192229;28;20041;-71
2023/06/12 07:44:51;;;;;;;3.28;1.77;;;;;;;28.61;46.64;100994.66;5184901;28;20026;-70
2023/06/12 07:47:22;;;;;;;5.85;1.95;;;;;;;28.97;46.59;100990.84;5184180;28;20121;-71
2023/06/12 07:49:52;;;;;;;2.47;1.70;;;;;;;29.70;45.37;100984.66;5193268;28;20529;-69
2023/06/12 07:52:22;;;;;;;3.40;1.73;;;;;;;29.45;44.91;100991.00;5190497;28;20283;-71
2023/06/12 07:54:53;;;;;;;3.10;1.63;;;;;;;29.74;43.93;100977.97;5192118;28;20025;-70
2023/06/12 07:57:23;;;;;;;2.70;1.53;;;;;;;30.46;43.81;100986.03;5192623;28;20032;-70
2023/06/12 07:59:53;;;;;;;4.47;1.67;;;;;;;29.33;44.68;100992.31;5187293;28;20423;-70
2023/06/12 08:02:28;;;;;;;3.03;1.65;;;;;;;30.04;43.04;100983.56;5187430;28;20338;-71
2023/06/12 08:04:59;;;;;;;3.22;1.73;;;;;;;29.41;43.74;100986.97;5190786;28;20033;-71
2023/06/12 08:07:33;;;;;;;4.95;1.58;;;;;;;29.52;44.27;100987.53;5180551;28;20026;-69
2023/06/12 08:10:07;;;;;;;4.82;1.70;;;;;;;29.54;42.71;100990.06;5185334;28;20291;-72
2023/06/12 08:12:37;;;;;;;6.28;1.88;;;;;;;29.43;43.61;100990.34;5185108;28;20392;-71
2023/06/12 08:15:08;;;;;;;2.80;1.20;;;;;;;29.40;41.71;100990.66;5189986;28;20044;-71
2023/06/12 08:17:41;;;;;;;3.55;1.40;;;;;;;29.56;41.68;100990.75;5190487;28;20053;-71
2023/06/12 08:20:17;;;;;;;4.88;1.40;;;;;;;29.89;41.94;100979.00;5186991;28;20029;-71
2023/06/12 08:22:48;;;;;;;5.25;1.30;;;;;;;30.87;41.53;100983.09;5189892;28;20037;-70
2023/06/12 08:25:18;;;;;;;4.72;1.40;;;;;;;30.51;42.60;100980.97;5189891;28;20046;-71
2023/06/12 08:27:49;;;;;;;2.47;1.20;;;;;;;31.10;41.24;100979.47;5193830;28;20026;-70
2023/06/12 08:30:19;;;;;;;7.27;1.40;;;;;;;31.20;40.47;100979.28;5187693;28;20043;-71
2023/06/12 08:32:49;;;;;;;5.28;1.40;;;;;;;31.11;38.89;100981.16;5191583;28;20095;-70
2023/06/12 08:35:20;;;;;;;1.70;0.97;;;;;;;30.36;39.96;100983.53;5186480;28;20188;-70
2023/06/12 08:37:50;;;;;;;2.47;1.10;;;;;;;30.91;37.75;100979.88;5182714;28;20029;-70
2023/06/12 08:40:21;;;;;;;2.67;1.20;;;;;;;30.72;38.46;100978.56;5189441;28;20021;-71
2023/06/12 08:42:51;;;;;;;2.10;1.10;;;;;;;30.59;39.16;100972.91;5183374;28;20472;-71
2023/06/12 08:45:25;;;;;;;2.30;1.13;;;;;;;31.67;37.25;100978.16;5181094;28;20084;-70
2023/06/12 08:47:56;;;;;;;3.75;1.15;;;;;;;31.56;38.44;100980.41;5182103;28;20234;-71
2023/06/12 08:50:27;;;;;;;2.95;1.10;;;;;;;32.05;37.83;100977.16;5184117;28;20570;-70
2023/06/12 08:52:58;;;;;;;1.92;1.20;;;;;;;31.73;38.47;100973.91;5189100;28;20029;-70
2023/06/12 08:55:28;;;;;;;3.28;1.25;;;;;;;31.11;38.40;100974.88;5189001;28;20495;-71
2023/06/12 08:58:00;;;;;;;3.58;1.25;;;;;;;31.34;39.59;100975.81;5184290;28;20044;-71
2023/06/12 09:00:31;;;;;;;4.60;1.20;;;;;;;31.15;39.37;100981.63;5184557;28;20054;-69
2023/06/12 09:03:04;;;;;;;2.25;1.23;;;;;;;31.80;38.12;100974.84;5187633;28;20530;-70
2023/06/12 09:05:37;;;;;;;2.10;1.20;;;;;;;30.52;37.98;100978.09;5188305;28;20033;-72
2023/06/12 09:08:07;;;;;;;2.85;1.25;;;;;;;29.52;39.96;100981.28;5187442;28;20932;-71
2023/06/12 09:10:41;;;;;;;6.63;2.20;;;;;;;29.72;39.14;100988.06;5184742;28;20116;-71
2023/06/12 09:13:11;;;;;;;5.28;1.40;;;;;;;30.00;40.05;100986.72;5180981;28;20052;-70
2023/06/12 09:15:50;;;;;;;8.30;1.50;;;;;;;30.42;39.75;100977.44;5184232;28;20025;-72
2023/06/12 09:18:20;;;;;;;2.10;1.40;;;;;;;30.89;38.12;100976.47;5178893;28;20491;-70
2023/06/12 09:20:50;;;;;;;5.75;1.38;;;;;;;30.36;39.36;100969.19;5206539;23;20045;-75
2023/06/12 09:23:21;;;;;;;1.95;1.30;;;;;;;31.16;39.58;100967.16;5187218;28;20028;-76
2023/06/12 09:25:54;;;;;;;3.50;1.60;;;;;;;29.33;39.21;100979.69;5188884;28;20017;-76
2023/06/12 09:28:25;;;;;;;2.10;1.38;;;;;;;30.49;39.37;100972.19;5186340;28;20033;-75
2023/06/12 09:30:56;;;;;;;5.45;1.60;;;;;;;30.56;39.71;100962.41;5193058;28;20025;-76
2023/06/12 09:33:27;;;;;;;4.40;1.45;;;;;;;29.54;38.60;100968.50;5188904;28;20049;-76
2023/06/12 09:35:59;;;;;;;4.93;1.63;;;;;;;29.25;39.27;100970.75;5188285;28;20108;-76
2023/06/12 09:38:31;;;;;;;3.97;1.65;;;;;;;31.62;36.90;100969.72;5189055;28;20562;-77
2023/06/12 09:41:03;;;;;;;4.00;1.58;;;;;;;30.06;39.02;100967.22;5192281;28;20037;-73
2023/06/12 09:43:34;;;;;;;4.82;1.50;;;;;;;29.64;39.62;100969.19;5190971;28;20360;-76
2023/06/12 09:46:08;;;;;;;2.72;1.52;;;;;;;29.62;38.97;100972.06;5189670;28;20318;-76
2023/06/12 09:48:39;;;;;;;2.75;1.30;;;;;;;30.79;39.08;100963.38;5191139;28;20244;-76
2023/06/12 09:51:09;;;;;;;2.20;1.42;;;;;;;30.26;39.41;100965.84;5187334;28;21328;-76
2023/06/12 09:53:40;;;;;;;2.38;1.50;;;;;;;29.90;38.84;100964.50;5190094;28;20033;-76
2023/06/12 09:56:11;;;;;;;3.88;1.70;;;;;;;29.63;39.13;100967.50;5190782;28;20083;-77
2023/06/12 09:58:47;;;;;;;7.13;1.60;;;;;;;30.38;39.07;100959.06;5190575;28;20087;-75
2023/06/12 10:01:19;;;;;;;5.03;1.65;;;;;;;30.22;38.32;100951.84;5189991;28;20529;-75
2023/06/12 10:03:52;;;;;;;4.13;1.48;;;;;;;30.73;39.80;100947.84;5194207;28;20029;-75
2023/06/12 10:06:26;;;;;;;2.67;1.52;;;;;;;30.80;38.39;100954.25;5187315;28;20030;-76
2023/06/12 10:08:57;;;;;;;4.70;1.25;;;;;;;29.60;39.29;100957.06;5192025;28;20104;-76
2023/06/12 10:11:28;;;;;;;2.38;1.50;;;;;;;28.44;39.38;100965.97;5190234;28;20603;-76
2023/06/12 10:13:59;;;;;;;5.80;1.50;;;;;;;27.44;39.56;100979.84;5193360;28;20029;-76
2023/06/12 10:16:31;;;;;;;4.50;2.05;;;;;;;27.71;40.60;100963.69;5189660;28;20506;-76
2023/06/12 10:19:01;;;;;;;1.85;1.35;;;;;;;28.13;39.49;100953.94;5192741;28;20025;-75
2023/06/12 10:21:33;;;;;;;6.00;1.75;;;;;;;28.49;38.52;100955.56;5190635;28;20053;-76
2023/06/12 10:24:04;;;;;;;3.58;1.48;;;;;;;28.08;40.49;100948.22;5192822;28;20109;-76
2023/06/12 10:26:35;;;;;;;3.08;1.33;;;;;;;28.15;38.53;100949.25;5191002;28;20076;-76
2023/06/12 10:29:53;;;;;;;2.88;1.60;;;;;;;28.53;40.86;100940.81;5193844;28;20021;-72
2023/06/12 10:32:24;;;;;;;2.30;1.38;;;;;;;27.81;39.86;100944.81;5183844;28;20399;-75
2023/06/12 10:34:54;;;;;;;2.33;1.60;;;;;;;27.96;38.82;100940.56;5168078;28;20026;-75
2023/06/12 10:37:27;;;;;;;2.95;1.83;;;;;;;27.52;37.88;100945.00;5181743;28;20057;-75
2023/06/12 10:40:07;;;;;;;4.78;1.70;;;;;;;27.69;38.04;100935.25;5188442;28;20368;-72
2023/06/12 10:42:43;;;;;;;4.55;1.30;;;;;;;28.16;38.11;100934.81;5194465;28;20030;-75
2023/06/12 10:45:14;;;;;;;;;;;;;;;27.93;37.40;100935.50;5192887;28;20029;-75
2023/06/12 10:50:40;;;;;;;4.82;1.33;;;;;;;27.31;38.55;100935.56;5187556;28;20038;-76
2023/06/12 10:53:13;;;;;;;6.40;1.60;;;;;;;27.49;36.71;100939.94;5194084;28;20053;-75
2023/06/12 10:55:43;;;;;;;2.88;1.33;;;;;;;26.58;37.24;100930.28;5192622;28;20393;-75
2023/06/12 10:58:19;;;;;;;4.05;1.40;;;;;;;26.50;37.77;100932.03;5189372;28;20033;-75
2023/06/12 11:00:51;;;;;;;3.03;1.60;;;;;;;26.67;38.83;100928.56;5193480;28;20028;-74
2023/06/12 11:03:25;;;;;;;4.15;1.52;;;;;;;26.93;36.62;100925.88;5184737;28;20029;-74
2023/06/12 11:06:08;;;;;;;2.85;1.80;;;;;;;27.10;39.76;100919.72;5182052;28;20516;-74
2023/06/12 11:08:42;;;;;;;3.80;1.60;;;;;;;27.47;40.27;100919.59;5186079;28;20029;-75
2023/06/12 11:11:14;;;;;;;4.75;1.60;;;;;;;27.25;39.90;100920.88;5183535;28;20039;-75
2023/06/12 11:13:46;;;;;;;3.72;1.80;;;;;;;27.40;40.05;100910.44;5182829;28;20038;-75
2023/06/12 11:16:17;;;;;;;4.85;2.13;;;;;;;27.38;40.05;100904.41;5191202;28;20021;-74
2023/06/12 11:19:03;;;;;;;3.38;1.60;;;;;;;27.57;40.32;100907.78;5193869;28;20033;-73
2023/06/12 11:21:37;;;;;;;5.47;1.80;;;;;;;26.94;41.87;100897.22;5189763;28;20076;-76
2023/06/12 11:24:10;;;;;;;3.38;1.70;;;;;;;27.28;42.02;100896.41;5193059;28;20049;-76
2023/06/12 11:26:41;;;;;;;6.93;2.10;;;;;;;26.06;42.79;100900.50;5191796;28;20044;-76
2023/06/12 11:29:15;;;;;;;6.05;1.52;;;;;;;26.62;42.95;100895.94;5185338;28;20025;-73
2023/06/12 11:31:50;;;;;;;3.17;1.80;;;;;;;26.93;43.65;100890.16;5184932;28;20033;-75
2023/06/12 11:34:20;;;;;;;3.15;1.65;;;;;;;26.83;41.94;100898.25;5183424;28;20435;-76
2023/06/12 11:36:51;;;;;;;4.20;2.00;;;;;;;27.40;42.48;100891.66;5182938;28;20286;-73
2023/06/12 11:39:21;;;;;;;3.60;2.00;;;;;;;27.40;41.49;100891.66;5185606;28;20638;-76
2023/06/12 11:41:53;;;;;;;6.60;2.20;;;;;;;27.39;42.59;100882.78;5193712;28;20346;-75
2023/06/12 11:44:23;;;;;;;6.22;1.98;;;;;;;27.19;42.77;100886.59;5189877;28;20112;-76
2023/06/12 11:46:58;;;;;;;4.88;2.03;;;;;;;27.29;44.11;100870.44;5193562;28;20096;-75
2023/06/12 11:49:31;;;;;;;2.97;2.08;;;;;;;26.69;43.48;100899.75;5193293;28;20053;-75